sensor_id;sensor_type;location;lat;lon;timestamp;pressure;altitude;pressure_sealevel;temperature;humidity
45525;BME280;31437;58.350;13.828;2022-08-19T00:02:03;99867.59;;;17.52;100.00
45525;BME280;31437;58.350;13.828;2022-08-19T00:04:31;99866.06;;;17.49;100.00
45525;BME280;31437;58.350;13.828;2022-08-19T00:06:57;99872.63;;;17.45;100.00
45525;BME280;31437;58.350;13.828;2022-08-19T00:09:23;99875.81;;;17.39;100.00
45525;BME280;31437;58.350;13.828;2022-08-19T00:11:48;99867.28;;;17.36;100.00
45525;BME280;31437;58.350;13.828;2022-08-19T00:14:15;99860.72;;;17.30;100.00
45525;BME280;31437;58.350;13.828;2022-08-19T00:16:42;99856.63;;;17.26;100.00
45525;BME280;31437;58.350;13.828;2022-08-19T00:19:08;99866.09;;;17.19;100.00
45525;BME280;31437;58.350;13.828;2022-08-19T00:21:33;99856.16;;;17.11;100.00
45525;BME280;31437;58.350;13.828;2022-08-19T00:24:03;99856.84;;;17.03;100.00
45525;BME280;31437;58.350;13.828;2022-08-19T00:26:28;99862.78;;;16.96;100.00
45525;BME280;31437;58.350;13.828;2022-08-19T00:28:54;99859.84;;;16.89;100.00
45525;BME280;31437;58.350;13.828;2022-08-19T00:31:19;99861.19;;;16.84;100.00
45525;BME280;31437;58.350;13.828;2022-08-19T00:33:45;99863.28;;;16.80;100.00
45525;BME280;31437;58.350;13.828;2022-08-19T00:36:11;99860.13;;;16.75;100.00
45525;BME280;31437;58.350;13.828;2022-08-19T00:38:37;99865.81;;;16.70;100.00
45525;BME280;31437;58.350;13.828;2022-08-19T00:41:08;99872.34;;;16.66;100.00
45525;BME280;31437;58.350;13.828;2022-08-19T00:43:34;99868.41;;;16.61;100.00
45525;BME280;31437;58.350;13.828;2022-08-19T00:45:59;99865.28;;;16.55;100.00
45525;BME280;31437;58.350;13.828;2022-08-19T00:48:26;99877.25;;;16.50;100.00
45525;BME280;31437;58.350;13.828;2022-08-19T00:50:51;99883.66;;;16.47;100.00
45525;BME280;31437;58.350;13.828;2022-08-19T00:53:20;99881.38;;;16.43;99.95
45525;BME280;31437;58.350;13.828;2022-08-19T00:55:47;99882.72;;;16.37;99.91
45525;BME280;31437;58.350;13.828;2022-08-19T00:58:14;99878.78;;;16.31;99.89
45525;BME280;31437;58.350;13.828;2022-08-19T01:00:40;99885.31;;;16.27;99.87
45525;BME280;31437;58.350;13.828;2022-08-19T01:03:10;99870.78;;;16.22;99.85
45525;BME280;31437;58.350;13.828;2022-08-19T01:05:36;99874.88;;;16.15;99.85
45525;BME280;31437;58.350;13.828;2022-08-19T01:08:02;99878.75;;;16.10;99.82
45525;BME280;31437;58.350;13.828;2022-08-19T01:10:29;99879.00;;;16.07;99.79
45525;BME280;31437;58.350;13.828;2022-08-19T01:12:57;99876.47;;;16.06;99.77
45525;BME280;31437;58.350;13.828;2022-08-19T01:15:24;99873.13;;;16.04;99.75
45525;BME280;31437;58.350;13.828;2022-08-19T01:17:51;99875.88;;;16.02;99.73
45525;BME280;31437;58.350;13.828;2022-08-19T01:20:20;99866.28;;;16.01;99.71
45525;BME280;31437;58.350;13.828;2022-08-19T01:22:47;99865.31;;;16.02;99.68
45525;BME280;31437;58.350;13.828;2022-08-19T01:25:16;99868.91;;;16.01;99.65
45525;BME280;31437;58.350;13.828;2022-08-19T01:27:43;99863.88;;;15.98;99.66
45525;BME280;31437;58.350;13.828;2022-08-19T01:30:10;99870.38;;;15.94;99.67
45525;BME280;31437;58.350;13.828;2022-08-19T01:32:36;99861.16;;;15.88;99.67
45525;BME280;31437;58.350;13.828;2022-08-19T01:35:02;99869.19;;;15.87;99.69
45525;BME280;31437;58.350;13.828;2022-08-19T01:37:28;99872.22;;;15.82;99.70
45525;BME280;31437;58.350;13.828;2022-08-19T01:39:53;99878.72;;;15.78;99.71
45525;BME280;31437;58.350;13.828;2022-08-19T01:42:19;99868.53;;;15.74;99.70
45525;BME280;31437;58.350;13.828;2022-08-19T01:44:45;99873.94;;;15.72;99.59
45525;BME280;31437;58.350;13.828;2022-08-19T01:47:10;99875.59;;;15.73;99.58
45525;BME280;31437;58.350;13.828;2022-08-19T01:49:38;99877.31;;;15.74;99.57
45525;BME280;31437;58.350;13.828;2022-08-19T01:52:04;99875.34;;;15.76;99.56
45525;BME280;31437;58.350;13.828;2022-08-19T01:54:30;99877.06;;;15.77;99.54
45525;BME280;31437;58.350;13.828;2022-08-19T01:57:07;99881.25;;;15.80;99.54
45525;BME280;31437;58.350;13.828;2022-08-19T01:59:33;99873.19;;;15.81;99.56
45525;BME280;31437;58.350;13.828;2022-08-19T02:02:01;99884.59;;;15.82;99.55
45525;BME280;31437;58.350;13.828;2022-08-19T02:04:28;99875.97;;;15.80;99.58
45525;BME280;31437;58.350;13.828;2022-08-19T02:06:53;99871.03;;;15.75;99.59
45525;BME280;31437;58.350;13.828;2022-08-19T02:09:18;99882.59;;;15.74;99.56
45525;BME280;31437;58.350;13.828;2022-08-19T02:11:43;99890.78;;;15.71;99.54
45525;BME280;31437;58.350;13.828;2022-08-19T02:14:09;99881.50;;;15.65;99.55
45525;BME280;31437;58.350;13.828;2022-08-19T02:16:35;99881.16;;;15.59;99.58
45525;BME280;31437;58.350;13.828;2022-08-19T02:19:00;99881.50;;;15.54;99.59
45525;BME280;31437;58.350;13.828;2022-08-19T02:21:26;99873.81;;;15.51;99.59
45525;BME280;31437;58.350;13.828;2022-08-19T02:23:51;99882.59;;;15.52;99.60
45525;BME280;31437;58.350;13.828;2022-08-19T02:26:16;99880.78;;;15.52;99.59
45525;BME280;31437;58.350;13.828;2022-08-19T02:28:42;99885.22;;;15.52;99.60
45525;BME280;31437;58.350;13.828;2022-08-19T02:31:11;99880.19;;;15.49;99.59
45525;BME280;31437;58.350;13.828;2022-08-19T02:33:37;99879.59;;;15.45;99.60
45525;BME280;31437;58.350;13.828;2022-08-19T02:36:06;99882.47;;;15.42;99.61
45525;BME280;31437;58.350;13.828;2022-08-19T02:38:31;99880.19;;;15.37;99.64
45525;BME280;31437;58.350;13.828;2022-08-19T02:41:01;99881.16;;;15.36;99.61
45525;BME280;31437;58.350;13.828;2022-08-19T02:43:28;99882.25;;;15.34;99.64
45525;BME280;31437;58.350;13.828;2022-08-19T02:45:54;99882.34;;;15.32;99.66
45525;BME280;31437;58.350;13.828;2022-08-19T02:48:20;99888.75;;;15.30;99.67
45525;BME280;31437;58.350;13.828;2022-08-19T02:50:46;99886.34;;;15.27;99.68
45525;BME280;31437;58.350;13.828;2022-08-19T02:53:12;99884.88;;;15.22;99.71
45525;BME280;31437;58.350;13.828;2022-08-19T02:55:46;99883.44;;;15.18;99.73
45525;BME280;31437;58.350;13.828;2022-08-19T02:58:12;99884.38;;;15.17;99.75
45525;BME280;31437;58.350;13.828;2022-08-19T03:00:45;99877.44;;;15.16;99.75
45525;BME280;31437;58.350;13.828;2022-08-19T03:03:11;99879.34;;;15.14;99.86
45525;BME280;31437;58.350;13.828;2022-08-19T03:05:37;99883.78;;;15.14;99.87
45525;BME280;31437;58.350;13.828;2022-08-19T03:08:02;99877.69;;;15.13;99.88
45525;BME280;31437;58.350;13.828;2022-08-19T03:10:30;99881.88;;;15.16;99.88
45525;BME280;31437;58.350;13.828;2022-08-19T03:12:55;99880.91;;;15.17;99.89
45525;BME280;31437;58.350;13.828;2022-08-19T03:15:20;99877.44;;;15.16;99.91
45525;BME280;31437;58.350;13.828;2022-08-19T03:17:46;99881.97;;;15.14;99.95
45525;BME280;31437;58.350;13.828;2022-08-19T03:20:11;99882.97;;;15.13;100.00
45525;BME280;31437;58.350;13.828;2022-08-19T03:22:36;99888.38;;;15.12;100.00
45525;BME280;31437;58.350;13.828;2022-08-19T03:25:02;99888.25;;;15.13;100.00
45525;BME280;31437;58.350;13.828;2022-08-19T03:27:27;99884.88;;;15.11;100.00
45525;BME280;31437;58.350;13.828;2022-08-19T03:29:52;99883.19;;;15.10;100.00
45525;BME280;31437;58.350;13.828;2022-08-19T03:32:18;99875.28;;;15.10;100.00
45525;BME280;31437;58.350;13.828;2022-08-19T03:34:43;99883.53;;;15.06;100.00
45525;BME280;31437;58.350;13.828;2022-08-19T03:37:09;99882.84;;;15.04;100.00
45525;BME280;31437;58.350;13.828;2022-08-19T03:39:37;99893.75;;;14.99;100.00
45525;BME280;31437;58.350;13.828;2022-08-19T03:42:02;99890.38;;;14.97;100.00
45525;BME280;31437;58.350;13.828;2022-08-19T03:44:29;99897.47;;;14.96;100.00
45525;BME280;31437;58.350;13.828;2022-08-19T03:46:55;99897.69;;;14.93;100.00
45525;BME280;31437;58.350;13.828;2022-08-19T03:49:22;99902.16;;;14.93;100.00
45525;BME280;31437;58.350;13.828;2022-08-19T03:51:48;99886.91;;;14.96;100.00
45525;BME280;31437;58.350;13.828;2022-08-19T03:54:16;99882.34;;;14.98;100.00
45525;BME280;31437;58.350;13.828;2022-08-19T03:56:43;99898.69;;;15.04;100.00
45525;BME280;31437;58.350;13.828;2022-08-19T03:59:10;99897.38;;;15.09;100.00
45525;BME280;31437;58.350;13.828;2022-08-19T04:01:36;99902.19;;;15.15;100.00
45525;BME280;31437;58.350;13.828;2022-08-19T04:04:01;99899.78;;;15.24;100.00
45525;BME280;31437;58.350;13.828;2022-08-19T04:06:29;99906.84;;;15.34;100.00
45525;BME280;31437;58.350;13.828;2022-08-19T04:08:55;99906.84;;;15.45;100.00
45525;BME280;31437;58.350;13.828;2022-08-19T04:11:23;99905.03;;;15.57;100.00
45525;BME280;31437;58.350;13.828;2022-08-19T04:13:49;99905.91;;;15.69;100.00
45525;BME280;31437;58.350;13.828;2022-08-19T04:16:16;99905.66;;;15.83;100.00
45525;BME280;31437;58.350;13.828;2022-08-19T04:18:44;99901.91;;;15.97;100.00
45525;BME280;31437;58.350;13.828;2022-08-19T04:21:14;99901.97;;;16.07;100.00
45525;BME280;31437;58.350;13.828;2022-08-19T04:23:39;99898.31;;;16.19;99.96
45525;BME280;31437;58.350;13.828;2022-08-19T04:26:05;99895.63;;;16.30;99.97
45525;BME280;31437;58.350;13.828;2022-08-19T04:28:30;99903.53;;;16.42;99.95
45525;BME280;31437;58.350;13.828;2022-08-19T04:30:55;99891.44;;;16.49;99.95
45525;BME280;31437;58.350;13.828;2022-08-19T04:33:23;99892.19;;;16.51;99.94
45525;BME280;31437;58.350;13.828;2022-08-19T04:35:50;99890.09;;;16.54;99.97
45525;BME280;31437;58.350;13.828;2022-08-19T04:38:16;99882.94;;;16.66;99.95
45525;BME280;31437;58.350;13.828;2022-08-19T04:40:48;99893.41;;;16.68;99.99
45525;BME280;31437;58.350;13.828;2022-08-19T04:43:33;99905.09;;;16.65;100.00
45525;BME280;31437;58.350;13.828;2022-08-19T04:46:04;99910.41;;;16.65;100.00
45525;BME280;31437;58.350;13.828;2022-08-19T04:48:29;99919.19;;;16.66;100.00
45525;BME280;31437;58.350;13.828;2022-08-19T04:50:55;99911.81;;;16.69;100.00
45525;BME280;31437;58.350;13.828;2022-08-19T04:53:28;99899.97;;;16.73;100.00
45525;BME280;31437;58.350;13.828;2022-08-19T04:55:54;99895.66;;;16.72;100.00
45525;BME280;31437;58.350;13.828;2022-08-19T04:58:20;99891.19;;;16.73;100.00
45525;BME280;31437;58.350;13.828;2022-08-19T05:00:45;99890.03;;;16.77;100.00
45525;BME280;31437;58.350;13.828;2022-08-19T05:03:10;99897.56;;;16.82;100.00
45525;BME280;31437;58.350;13.828;2022-08-19T05:05:40;99886.59;;;16.86;100.00
45525;BME280;31437;58.350;13.828;2022-08-19T05:08:05;99890.38;;;16.93;100.00
45525;BME280;31437;58.350;13.828;2022-08-19T05:10:34;99887.66;;;17.05;100.00
45525;BME280;31437;58.350;13.828;2022-08-19T05:12:59;99890.59;;;17.11;100.00
45525;BME280;31437;58.350;13.828;2022-08-19T05:15:25;99895.56;;;17.25;100.00
45525;BME280;31437;58.350;13.828;2022-08-19T05:17:50;99904.00;;;17.40;100.00
45525;BME280;31437;58.350;13.828;2022-08-19T05:20:37;99912.56;;;17.54;99.97
45525;BME280;31437;58.350;13.828;2022-08-19T05:23:21;99912.88;;;17.60;99.99
45525;BME280;31437;58.350;13.828;2022-08-19T05:25:46;99913.16;;;17.67;100.00
45525;BME280;31437;58.350;13.828;2022-08-19T05:28:12;99914.59;;;17.71;100.00
45525;BME280;31437;58.350;13.828;2022-08-19T05:30:37;99916.97;;;17.74;100.00
45525;BME280;31437;58.350;13.828;2022-08-19T05:33:02;99916.69;;;17.77;100.00
45525;BME280;31437;58.350;13.828;2022-08-19T05:35:28;99915.47;;;17.81;100.00
45525;BME280;31437;58.350;13.828;2022-08-19T05:37:53;99923.16;;;17.84;100.00
45525;BME280;31437;58.350;13.828;2022-08-19T05:40:19;99921.66;;;17.91;100.00
45525;BME280;31437;58.350;13.828;2022-08-19T05:42:44;99923.88;;;17.96;100.00
45525;BME280;31437;58.350;13.828;2022-08-19T05:45:11;99928.63;;;18.02;100.00
45525;BME280;31437;58.350;13.828;2022-08-19T05:47:36;99924.47;;;18.09;100.00
45525;BME280;31437;58.350;13.828;2022-08-19T05:50:02;99934.09;;;18.20;100.00
45525;BME280;31437;58.350;13.828;2022-08-19T05:52:27;99942.50;;;18.35;100.00
45525;BME280;31437;58.350;13.828;2022-08-19T05:54:53;99943.22;;;18.56;100.00
45525;BME280;31437;58.350;13.828;2022-08-19T05:57:20;99938.91;;;18.75;100.00
45525;BME280;31437;58.350;13.828;2022-08-19T05:59:45;99945.88;;;18.86;100.00
45525;BME280;31437;58.350;13.828;2022-08-19T06:02:13;99951.03;;;18.97;100.00
45525;BME280;31437;58.350;13.828;2022-08-19T06:04:39;99952.84;;;19.06;100.00
45525;BME280;31437;58.350;13.828;2022-08-19T06:07:07;99952.66;;;19.17;100.00
45525;BME280;31437;58.350;13.828;2022-08-19T06:09:33;99963.25;;;19.37;100.00
45525;BME280;31437;58.350;13.828;2022-08-19T06:11:58;99970.41;;;19.73;100.00
45525;BME280;31437;58.350;13.828;2022-08-19T06:14:26;99983.56;;;20.30;99.99
45525;BME280;31437;58.350;13.828;2022-08-19T06:16:52;100008.34;;;20.94;99.96
45525;BME280;31437;58.350;13.828;2022-08-19T06:19:18;100032.59;;;21.53;99.90
45525;BME280;31437;58.350;13.828;2022-08-19T06:21:44;100030.97;;;21.86;99.94
45525;BME280;31437;58.350;13.828;2022-08-19T06:24:11;100045.88;;;22.05;99.98
45525;BME280;31437;58.350;13.828;2022-08-19T06:26:38;100045.19;;;21.95;100.00
45525;BME280;31437;58.350;13.828;2022-08-19T06:29:07;100071.66;;;21.88;100.00
45525;BME280;31437;58.350;13.828;2022-08-19T06:31:34;100066.72;;;21.67;100.00
45525;BME280;31437;58.350;13.828;2022-08-19T06:34:03;100070.81;;;21.53;100.00
45525;BME280;31437;58.350;13.828;2022-08-19T06:36:34;100068.50;;;21.59;100.00
45525;BME280;31437;58.350;13.828;2022-08-19T06:39:00;100087.53;;;21.90;100.00
45525;BME280;31437;58.350;13.828;2022-08-19T06:41:28;100089.38;;;22.23;100.00
45525;BME280;31437;58.350;13.828;2022-08-19T06:43:54;100099.16;;;22.41;100.00
45525;BME280;31437;58.350;13.828;2022-08-19T06:46:20;100110.22;;;22.54;100.00
45525;BME280;31437;58.350;13.828;2022-08-19T06:48:46;100111.78;;;22.65;100.00
45525;BME280;31437;58.350;13.828;2022-08-19T06:51:13;100118.59;;;22.67;100.00
45525;BME280;31437;58.350;13.828;2022-08-19T06:53:40;100113.72;;;22.55;100.00
45525;BME280;31437;58.350;13.828;2022-08-19T06:56:06;100106.38;;;22.49;100.00
45525;BME280;31437;58.350;13.828;2022-08-19T06:58:31;100104.69;;;22.48;100.00
45525;BME280;31437;58.350;13.828;2022-08-19T07:00:58;100088.13;;;22.44;100.00
45525;BME280;31437;58.350;13.828;2022-08-19T07:03:25;100080.44;;;22.41;100.00
45525;BME280;31437;58.350;13.828;2022-08-19T07:05:50;100069.53;;;22.26;100.00
45525;BME280;31437;58.350;13.828;2022-08-19T07:08:16;100043.72;;;22.00;100.00
45525;BME280;31437;58.350;13.828;2022-08-19T07:10:45;100027.41;;;21.77;100.00
45525;BME280;31437;58.350;13.828;2022-08-19T07:13:10;100023.50;;;21.64;100.00
45525;BME280;31437;58.350;13.828;2022-08-19T07:15:36;100004.13;;;21.62;100.00
45525;BME280;31437;58.350;13.828;2022-08-19T07:18:02;99989.47;;;21.66;100.00
45525;BME280;31437;58.350;13.828;2022-08-19T07:20:28;99983.00;;;21.76;100.00
45525;BME280;31437;58.350;13.828;2022-08-19T07:22:53;99970.75;;;21.92;100.00
45525;BME280;31437;58.350;13.828;2022-08-19T07:25:18;99971.28;;;22.12;100.00
45525;BME280;31437;58.350;13.828;2022-08-19T07:27:45;99968.22;;;22.33;100.00
45525;BME280;31437;58.350;13.828;2022-08-19T07:30:13;99961.72;;;22.84;100.00
45525;BME280;31437;58.350;13.828;2022-08-19T07:32:39;99946.84;;;23.15;100.00
45525;BME280;31437;58.350;13.828;2022-08-19T07:35:04;99923.22;;;23.26;100.00
45525;BME280;31437;58.350;13.828;2022-08-19T07:37:31;99906.00;;;23.29;100.00
45525;BME280;31437;58.350;13.828;2022-08-19T07:39:56;99894.41;;;23.45;100.00
45525;BME280;31437;58.350;13.828;2022-08-19T07:42:21;99885.38;;;23.85;100.00
45525;BME280;31437;58.350;13.828;2022-08-19T07:44:47;99865.22;;;24.20;100.00
45525;BME280;31437;58.350;13.828;2022-08-19T07:47:12;99838.41;;;24.43;100.00
45525;BME280;31437;58.350;13.828;2022-08-19T07:49:40;99794.00;;;24.41;100.00
45525;BME280;31437;58.350;13.828;2022-08-19T07:52:06;99764.34;;;24.28;100.00
45525;BME280;31437;58.350;13.828;2022-08-19T07:54:34;99750.06;;;23.97;100.00
45525;BME280;31437;58.350;13.828;2022-08-19T07:57:00;99756.34;;;23.82;100.00
45525;BME280;31437;58.350;13.828;2022-08-19T07:59:26;99754.44;;;23.90;100.00
45525;BME280;31437;58.350;13.828;2022-08-19T08:01:53;99753.78;;;24.26;100.00
45525;BME280;31437;58.350;13.828;2022-08-19T08:04:19;99748.31;;;24.57;100.00
45525;BME280;31437;58.350;13.828;2022-08-19T08:07:03;99726.03;;;24.86;100.00
45525;BME280;31437;58.350;13.828;2022-08-19T08:09:47;99719.47;;;24.89;100.00
45525;BME280;31437;58.350;13.828;2022-08-19T08:12:17;99713.94;;;24.61;100.00
45525;BME280;31437;58.350;13.828;2022-08-19T08:14:47;99702.34;;;24.31;100.00
45525;BME280;31437;58.350;13.828;2022-08-19T08:17:17;99708.03;;;23.98;100.00
45525;BME280;31437;58.350;13.828;2022-08-19T08:19:43;99713.94;;;23.70;100.00
45525;BME280;31437;58.350;13.828;2022-08-19T08:22:10;99725.50;;;23.63;100.00
45525;BME280;31437;58.350;13.828;2022-08-19T08:24:55;99744.97;;;23.79;100.00
45525;BME280;31437;58.350;13.828;2022-08-19T08:27:23;99750.31;;;24.02;100.00
45525;BME280;31437;58.350;13.828;2022-08-19T08:29:49;99750.56;;;24.31;100.00
45525;BME280;31437;58.350;13.828;2022-08-19T08:32:14;99740.81;;;24.67;100.00
45525;BME280;31437;58.350;13.828;2022-08-19T08:34:39;99741.53;;;25.06;100.00
45525;BME280;31437;58.350;13.828;2022-08-19T08:37:05;99741.25;;;25.52;100.00
45525;BME280;31437;58.350;13.828;2022-08-19T08:39:30;99709.94;;;25.80;100.00
45525;BME280;31437;58.350;13.828;2022-08-19T08:42:04;99704.06;;;26.20;100.00
45525;BME280;31437;58.350;13.828;2022-08-19T08:44:38;99693.94;;;26.50;100.00
45525;BME280;31437;58.350;13.828;2022-08-19T08:47:06;99674.53;;;26.55;100.00
45525;BME280;31437;58.350;13.828;2022-08-19T08:52:07;99640.38;;;27.03;100.00
45525;BME280;31437;58.350;13.828;2022-08-19T08:54:44;99636.09;;;27.22;100.00
45525;BME280;31437;58.350;13.828;2022-08-19T08:57:12;99625.25;;;27.09;100.00
45525;BME280;31437;58.350;13.828;2022-08-19T08:59:39;99621.31;;;27.05;100.00
45525;BME280;31437;58.350;13.828;2022-08-19T09:02:05;99625.94;;;26.56;100.00
45525;BME280;31437;58.350;13.828;2022-08-19T09:04:31;99629.72;;;26.75;100.00
45525;BME280;31437;58.350;13.828;2022-08-19T09:09:32;99622.63;;;27.15;100.00
45525;BME280;31437;58.350;13.828;2022-08-19T09:14:32;99603.16;;;27.73;100.00
45525;BME280;31437;58.350;13.828;2022-08-19T09:16:59;99594.88;;;27.88;100.00
45525;BME280;31437;58.350;13.828;2022-08-19T09:19:28;99576.63;;;28.03;100.00
45525;BME280;31437;58.350;13.828;2022-08-19T09:21:53;99573.22;;;28.28;100.00
45525;BME280;31437;58.350;13.828;2022-08-19T09:24:19;99564.06;;;28.29;100.00
45525;BME280;31437;58.350;13.828;2022-08-19T09:26:44;99557.81;;;28.35;100.00
45525;BME280;31437;58.350;13.828;2022-08-19T09:29:10;99559.88;;;28.46;100.00
45525;BME280;31437;58.350;13.828;2022-08-19T09:31:35;99565.63;;;28.63;100.00
45525;BME280;31437;58.350;13.828;2022-08-19T09:34:00;99542.09;;;28.70;100.00
45525;BME280;31437;58.350;13.828;2022-08-19T09:36:28;99553.28;;;28.81;100.00
45525;BME280;31437;58.350;13.828;2022-08-19T09:38:55;99541.66;;;28.80;100.00
45525;BME280;31437;58.350;13.828;2022-08-19T09:41:21;99534.63;;;28.72;100.00
45525;BME280;31437;58.350;13.828;2022-08-19T09:43:48;99525.50;;;28.73;100.00
45525;BME280;31437;58.350;13.828;2022-08-19T09:46:16;99534.44;;;28.67;100.00
45525;BME280;31437;58.350;13.828;2022-08-19T09:48:43;99529.06;;;28.67;100.00
45525;BME280;31437;58.350;13.828;2022-08-19T09:51:12;99526.78;;;28.64;100.00
45525;BME280;31437;58.350;13.828;2022-08-19T09:53:43;99527.22;;;28.61;100.00
45525;BME280;31437;58.350;13.828;2022-08-19T09:56:09;99518.53;;;28.59;100.00
45525;BME280;31437;58.350;13.828;2022-08-19T09:58:34;99528.91;;;28.56;100.00
45525;BME280;31437;58.350;13.828;2022-08-19T10:01:00;99534.13;;;28.57;100.00
45525;BME280;31437;58.350;13.828;2022-08-19T10:03:27;99532.47;;;28.56;100.00
45525;BME280;31437;58.350;13.828;2022-08-19T10:05:53;99528.31;;;28.53;100.00
45525;BME280;31437;58.350;13.828;2022-08-19T10:08:19;99528.84;;;28.69;100.00
45525;BME280;31437;58.350;13.828;2022-08-19T10:10:45;99527.34;;;28.80;100.00
45525;BME280;31437;58.350;13.828;2022-08-19T10:13:11;99527.44;;;28.91;100.00
45525;BME280;31437;58.350;13.828;2022-08-19T10:15:36;99524.91;;;28.96;100.00
45525;BME280;31437;58.350;13.828;2022-08-19T10:18:04;99517.78;;;29.09;100.00
45525;BME280;31437;58.350;13.828;2022-08-19T10:20:29;99515.09;;;29.09;100.00
45525;BME280;31437;58.350;13.828;2022-08-19T10:22:55;99516.31;;;29.13;100.00
45525;BME280;31437;58.350;13.828;2022-08-19T10:25:20;99508.78;;;28.90;100.00
45525;BME280;31437;58.350;13.828;2022-08-19T10:27:45;99510.66;;;28.89;100.00
45525;BME280;31437;58.350;13.828;2022-08-19T10:30:11;99506.97;;;28.84;100.00
45525;BME280;31437;58.350;13.828;2022-08-19T10:32:36;99509.78;;;28.95;100.00
45525;BME280;31437;58.350;13.828;2022-08-19T10:35:03;99515.09;;;29.09;100.00
45525;BME280;31437;58.350;13.828;2022-08-19T10:37:33;99507.97;;;29.21;100.00
45525;BME280;31437;58.350;13.828;2022-08-19T10:39:58;99504.50;;;29.32;100.00
45525;BME280;31437;58.350;13.828;2022-08-19T10:42:23;99512.22;;;29.54;100.00
45525;BME280;31437;58.350;13.828;2022-08-19T10:44:49;99496.25;;;29.71;100.00
45525;BME280;31437;58.350;13.828;2022-08-19T10:47:15;99497.47;;;29.75;100.00
45525;BME280;31437;58.350;13.828;2022-08-19T10:49:40;99491.34;;;29.86;100.00
45525;BME280;31437;58.350;13.828;2022-08-19T10:52:25;99490.94;;;29.82;100.00
45525;BME280;31437;58.350;13.828;2022-08-19T10:55:00;99486.28;;;29.90;100.00
45525;BME280;31437;58.350;13.828;2022-08-19T10:57:44;99482.59;;;30.02;100.00
45525;BME280;31437;58.350;13.828;2022-08-19T11:00:10;99471.63;;;29.97;100.00
45525;BME280;31437;58.350;13.828;2022-08-19T11:02:35;99465.91;;;30.05;100.00
45525;BME280;31437;58.350;13.828;2022-08-19T11:05:00;99468.50;;;30.00;100.00
45525;BME280;31437;58.350;13.828;2022-08-19T11:07:26;99461.94;;;30.08;100.00
45525;BME280;31437;58.350;13.828;2022-08-19T11:09:51;99462.91;;;30.14;100.00
45525;BME280;31437;58.350;13.828;2022-08-19T11:12:16;99454.19;;;30.11;100.00
45525;BME280;31437;58.350;13.828;2022-08-19T11:14:42;99454.59;;;29.97;100.00
45525;BME280;31437;58.350;13.828;2022-08-19T11:17:07;99461.59;;;29.86;100.00
45525;BME280;31437;58.350;13.828;2022-08-19T11:19:33;99460.91;;;29.91;100.00
45525;BME280;31437;58.350;13.828;2022-08-19T11:21:58;99453.69;;;29.84;100.00
45525;BME280;31437;58.350;13.828;2022-08-19T11:24:26;99460.91;;;29.72;100.00
45525;BME280;31437;58.350;13.828;2022-08-19T11:26:53;99452.25;;;29.45;100.00
45525;BME280;31437;58.350;13.828;2022-08-19T11:29:23;99458.19;;;29.10;100.00
45525;BME280;31437;58.350;13.828;2022-08-19T11:31:52;99452.06;;;28.71;100.00
45525;BME280;31437;58.350;13.828;2022-08-19T11:34:19;99467.81;;;28.36;100.00
45525;BME280;31437;58.350;13.828;2022-08-19T11:36:45;99484.13;;;28.10;100.00
45525;BME280;31437;58.350;13.828;2022-08-19T11:39:13;99495.63;;;27.78;100.00
45525;BME280;31437;58.350;13.828;2022-08-19T11:41:39;99509.72;;;27.47;100.00
45525;BME280;31437;58.350;13.828;2022-08-19T11:44:04;99517.22;;;27.18;100.00
45525;BME280;31437;58.350;13.828;2022-08-19T11:46:32;99519.44;;;26.82;100.00
45525;BME280;31437;58.350;13.828;2022-08-19T11:48:58;99525.16;;;26.52;100.00
45525;BME280;31437;58.350;13.828;2022-08-19T11:51:25;99533.97;;;26.33;100.00
45525;BME280;31437;58.350;13.828;2022-08-19T11:53:52;99538.72;;;26.31;100.00
45525;BME280;31437;58.350;13.828;2022-08-19T11:56:17;99549.31;;;26.45;100.00
45525;BME280;31437;58.350;13.828;2022-08-19T11:58:43;99548.78;;;26.63;100.00
45525;BME280;31437;58.350;13.828;2022-08-19T12:01:10;99539.09;;;26.82;100.00
45525;BME280;31437;58.350;13.828;2022-08-19T12:03:36;99535.16;;;26.78;100.00
45525;BME280;31437;58.350;13.828;2022-08-19T12:06:05;99530.13;;;26.62;100.00
45525;BME280;31437;58.350;13.828;2022-08-19T12:08:31;99522.19;;;26.40;100.00
45525;BME280;31437;58.350;13.828;2022-08-19T12:10:56;99523.00;;;26.27;100.00
45525;BME280;31437;58.350;13.828;2022-08-19T12:13:22;99518.31;;;26.01;100.00
45525;BME280;31437;58.350;13.828;2022-08-19T12:15:47;99517.41;;;25.88;100.00
45525;BME280;31437;58.350;13.828;2022-08-19T12:18:13;99523.72;;;25.73;100.00
45525;BME280;31437;58.350;13.828;2022-08-19T12:20:41;99533.97;;;25.63;100.00
45525;BME280;31437;58.350;13.828;2022-08-19T12:23:08;99546.47;;;25.49;100.00
45525;BME280;31437;58.350;13.828;2022-08-19T12:25:37;99566.31;;;25.48;100.00
45525;BME280;31437;58.350;13.828;2022-08-19T12:28:03;99561.72;;;25.42;100.00
45525;BME280;31437;58.350;13.828;2022-08-19T12:30:29;99548.72;;;25.46;100.00
45525;BME280;31437;58.350;13.828;2022-08-19T12:32:54;99549.94;;;25.43;100.00
45525;BME280;31437;58.350;13.828;2022-08-19T12:35:20;99548.38;;;25.27;100.00
45525;BME280;31437;58.350;13.828;2022-08-19T12:37:46;99522.25;;;25.14;100.00
45525;BME280;31437;58.350;13.828;2022-08-19T12:40:13;99509.59;;;24.87;100.00
45525;BME280;31437;58.350;13.828;2022-08-19T12:42:39;99495.94;;;24.60;100.00
45525;BME280;31437;58.350;13.828;2022-08-19T12:45:11;99507.00;;;24.21;100.00
45525;BME280;31437;58.350;13.828;2022-08-19T12:47:37;99515.97;;;24.13;100.00